createdAt,value
2019-03-25T00:02:09.876Z,2.60
2019-03-25T00:04:46.344Z,2.70
2019-03-25T00:07:27.759Z,2.70
2019-03-25T00:09:57.844Z,2.90
2019-03-25T00:12:34.863Z,2.90
2019-03-25T00:15:13.543Z,3.00
2019-03-25T00:17:48.256Z,2.90
2019-03-25T00:20:26.015Z,3.00
2019-03-25T00:25:58.365Z,3.20
2019-03-25T00:28:35.854Z,3.10
2019-03-25T00:31:14.295Z,3.00
2019-03-25T00:33:54.721Z,3.10
2019-03-25T00:39:23.850Z,3.20
2019-03-25T00:41:57.913Z,3.10
2019-03-25T00:44:31.341Z,3.10
2019-03-25T00:47:06.995Z,3.10
2019-03-25T00:49:44.467Z,3.20
2019-03-25T00:52:19.156Z,3.10
2019-03-25T00:54:54.443Z,3.10
2019-03-25T00:57:30.366Z,3.10
2019-03-25T01:00:07.204Z,3.10
2019-03-25T01:02:38.789Z,3.00
2019-03-25T01:05:11.485Z,3.00
2019-03-25T01:07:57.905Z,3.10
2019-03-25T01:10:21.881Z,3.20
2019-03-25T01:12:58.025Z,3.20
2019-03-25T01:15:40.664Z,3.20
2019-03-25T01:18:17.780Z,3.10
2019-03-25T01:20:51.067Z,3.20
2019-03-25T01:26:08.243Z,3.00
2019-03-25T01:28:45.185Z,2.90
2019-03-25T01:31:17.095Z,2.90
2019-03-25T01:33:49.619Z,3.00
2019-03-25T01:36:22.045Z,3.00
2019-03-25T01:38:53.259Z,3.00
2019-03-25T01:41:28.800Z,3.00
2019-03-25T01:44:00.277Z,3.00
2019-03-25T01:46:31.119Z,3.10
2019-03-25T01:49:04.090Z,3.10
2019-03-25T01:51:35.144Z,3.10
2019-03-25T01:54:07.078Z,3.10
2019-03-25T01:56:40.359Z,3.00
2019-03-25T01:59:11.169Z,3.00
2019-03-25T02:01:44.225Z,3.10
2019-03-25T02:04:16.758Z,3.00
2019-03-25T02:06:47.704Z,2.90
2019-03-25T02:09:18.502Z,2.80
2019-03-25T02:11:50.525Z,2.80
2019-03-25T02:14:21.328Z,2.80
2019-03-25T02:16:52.199Z,2.80
2019-03-25T02:19:22.831Z,2.80
2019-03-25T02:21:53.599Z,2.80
2019-03-25T02:24:24.476Z,2.80
2019-03-25T02:26:55.333Z,2.70
2019-03-25T02:29:26.141Z,2.80
2019-03-25T02:31:57.133Z,2.90
2019-03-25T02:34:27.943Z,2.90
2019-03-25T02:36:58.701Z,2.90
2019-03-25T02:39:29.602Z,2.90
2019-03-25T02:42:01.472Z,2.90
2019-03-25T02:44:32.268Z,2.80
2019-03-25T02:47:03.182Z,2.80
2019-03-25T02:49:34.079Z,2.70
2019-03-25T02:52:06.548Z,2.60
2019-03-25T02:54:38.277Z,2.60
2019-03-25T02:57:09.555Z,2.50
2019-03-25T02:59:40.188Z,2.50
2019-03-25T03:02:12.348Z,2.40
2019-03-25T03:04:43.125Z,2.40
2019-03-25T03:07:14.060Z,2.30
2019-03-25T03:09:44.928Z,2.40
2019-03-25T03:12:17.111Z,2.50
2019-03-25T03:14:48.010Z,2.40
2019-03-25T03:17:18.860Z,2.50
2019-03-25T03:19:49.804Z,2.50
2019-03-25T03:22:21.551Z,2.50
2019-03-25T03:24:52.297Z,2.40
2019-03-25T03:27:23.120Z,2.50
2019-03-25T03:29:53.958Z,2.40
2019-03-25T03:32:26.032Z,2.40
2019-03-25T03:34:56.756Z,2.40
2019-03-25T03:37:27.497Z,2.40
2019-03-25T03:39:58.378Z,2.50
2019-03-25T03:42:30.424Z,2.60
2019-03-25T03:45:02.283Z,2.80
2019-03-25T03:47:33.085Z,2.90
2019-03-25T03:50:05.967Z,3.00
2019-03-25T03:52:37.210Z,3.10
2019-03-25T03:55:08.053Z,3.10
2019-03-25T03:57:38.871Z,3.20
2019-03-25T04:00:12.788Z,3.30
2019-03-25T04:02:44.779Z,3.40
2019-03-25T04:05:15.699Z,3.40
2019-03-25T04:07:46.436Z,3.50
2019-03-25T04:10:18.146Z,3.50
2019-03-25T04:12:51.062Z,3.60
2019-03-25T04:15:29.589Z,3.60
2019-03-25T04:18:00.699Z,3.60
2019-03-25T04:20:31.591Z,3.60
2019-03-25T04:23:04.041Z,3.60
2019-03-25T04:25:34.891Z,3.60
2019-03-25T04:28:06.744Z,3.60
2019-03-25T04:30:37.638Z,3.70
2019-03-25T04:33:09.932Z,3.70
2019-03-25T04:35:40.891Z,3.70
2019-03-25T04:38:11.692Z,3.80
2019-03-25T04:40:42.561Z,3.80
2019-03-25T04:43:14.587Z,3.80
2019-03-25T04:45:45.319Z,3.90
2019-03-25T04:48:16.092Z,3.90
2019-03-25T04:50:46.912Z,3.90
2019-03-25T04:53:18.808Z,4.00
2019-03-25T04:55:49.583Z,4.00
2019-03-25T04:58:20.461Z,3.80
2019-03-25T05:00:51.251Z,3.80
2019-03-25T05:03:23.249Z,3.80
2019-03-25T05:05:54.187Z,3.60
2019-03-25T05:08:25.002Z,3.50
2019-03-25T05:10:55.846Z,3.50
2019-03-25T05:13:27.971Z,3.50
2019-03-25T05:15:58.756Z,3.50
2019-03-25T05:18:29.467Z,3.50
2019-03-25T05:21:00.426Z,3.50
2019-03-25T05:23:32.350Z,3.50
2019-03-25T05:26:03.153Z,3.60
2019-03-25T05:28:34.024Z,3.60
2019-03-25T05:31:04.855Z,3.60
2019-03-25T05:33:35.718Z,3.50
2019-03-25T05:36:06.571Z,3.40
2019-03-25T05:38:37.396Z,3.20
2019-03-25T05:41:08.345Z,3.00
2019-03-25T05:43:39.172Z,2.90
2019-03-25T05:46:09.977Z,2.70
2019-03-25T05:48:40.839Z,2.70
2019-03-25T05:51:11.727Z,2.70
2019-03-25T05:53:42.687Z,2.70
2019-03-25T05:56:13.548Z,2.80
2019-03-25T05:58:44.347Z,2.90
2019-03-25T06:01:15.306Z,2.90
2019-03-25T06:03:46.230Z,2.90
2019-03-25T06:06:18.286Z,2.80
2019-03-25T06:08:49.169Z,2.90
2019-03-25T06:11:19.954Z,2.90
2019-03-25T06:13:50.687Z,2.90
2019-03-25T06:16:23.061Z,2.90
2019-03-25T06:18:53.976Z,2.90
2019-03-25T06:21:24.831Z,3.00
2019-03-25T06:23:55.704Z,3.00
2019-03-25T06:26:29.201Z,3.00
2019-03-25T06:29:00.097Z,2.90
2019-03-25T06:31:31.970Z,2.90
2019-03-25T06:34:02.851Z,2.90
2019-03-25T06:36:33.639Z,2.90
2019-03-25T06:39:06.178Z,2.90
2019-03-25T06:41:37.058Z,3.00
2019-03-25T06:44:07.876Z,3.10
2019-03-25T06:46:40.079Z,3.20
2019-03-25T06:49:10.748Z,3.10
2019-03-25T06:51:41.670Z,3.20
2019-03-25T06:54:12.543Z,3.30
2019-03-25T06:56:44.413Z,3.30
2019-03-25T06:59:16.315Z,3.40
2019-03-25T07:01:47.444Z,3.50
2019-03-25T07:04:18.324Z,3.30
2019-03-25T07:06:49.091Z,3.30
2019-03-25T07:09:19.912Z,3.30
2019-03-25T07:11:50.968Z,3.40
2019-03-25T07:14:22.029Z,3.60
2019-03-25T07:16:54.066Z,3.60
2019-03-25T07:19:24.825Z,3.70
2019-03-25T07:21:55.561Z,4.00
2019-03-25T07:24:26.566Z,4.20
2019-03-25T07:26:57.534Z,4.20
2019-03-25T07:29:28.421Z,4.20
2019-03-25T07:31:59.277Z,4.50
2019-03-25T07:34:30.113Z,4.50
2019-03-25T07:37:00.911Z,4.70
2019-03-25T07:39:31.675Z,4.80
2019-03-25T07:42:02.602Z,4.90
2019-03-25T07:44:33.534Z,5.00
2019-03-25T07:47:05.543Z,5.00
2019-03-25T07:49:36.328Z,4.70
2019-03-25T07:52:07.227Z,4.90
2019-03-25T07:54:37.946Z,4.90
2019-03-25T07:57:11.682Z,4.80
2019-03-25T07:59:42.384Z,4.70
2019-03-25T08:02:15.170Z,4.80
2019-03-25T08:04:45.571Z,4.90
2019-03-25T08:07:17.511Z,5.00
2019-03-25T08:09:48.375Z,5.00
2019-03-25T08:12:19.136Z,5.30
2019-03-25T08:14:50.008Z,6.10
2019-03-25T08:17:22.189Z,6.80
2019-03-25T08:19:53.029Z,7.30
2019-03-25T08:22:24.027Z,8.70
2019-03-25T08:24:54.781Z,9.80
2019-03-25T08:27:27.127Z,11.40
2019-03-25T08:29:57.922Z,10.80
2019-03-25T08:32:28.735Z,9.00
2019-03-25T08:34:59.468Z,8.10
2019-03-25T08:37:31.286Z,7.30
2019-03-25T08:40:02.072Z,6.90
2019-03-25T08:42:32.893Z,6.60
2019-03-25T08:45:04.059Z,7.40
2019-03-25T08:47:36.107Z,7.40
2019-03-25T08:50:08.403Z,8.50
2019-03-25T08:52:39.239Z,8.90
2019-03-25T08:55:10.703Z,11.60
2019-03-25T08:57:42.933Z,10.70
2019-03-25T09:00:14.376Z,12.50
2019-03-25T09:02:45.167Z,12.00
2019-03-25T09:05:16.105Z,10.80
2019-03-25T09:07:47.936Z,9.70
2019-03-25T09:10:18.695Z,9.10
2019-03-25T09:12:49.603Z,8.70
2019-03-25T09:15:20.588Z,9.90
2019-03-25T09:17:52.810Z,12.00
2019-03-25T09:20:23.819Z,11.00
2019-03-25T09:22:54.550Z,12.40
2019-03-25T09:25:26.343Z,10.10
2019-03-25T09:27:59.014Z,9.40
2019-03-25T09:30:54.251Z,8.80
2019-03-25T09:33:25.115Z,8.40
2019-03-25T09:35:56.961Z,7.80
2019-03-25T09:38:27.857Z,7.70
2019-03-25T09:40:58.499Z,7.50
2019-03-25T09:43:29.698Z,7.30
2019-03-25T09:46:00.536Z,7.20
2019-03-25T09:48:31.638Z,7.20
2019-03-25T09:51:02.328Z,7.10
2019-03-25T09:53:33.148Z,7.10
2019-03-25T09:56:03.911Z,7.20
2019-03-25T09:58:36.567Z,7.10
2019-03-25T10:01:07.217Z,7.00
2019-03-25T10:03:39.160Z,7.10
2019-03-25T10:06:09.986Z,7.50
2019-03-25T10:08:40.848Z,7.80
2019-03-25T10:11:11.710Z,8.10
2019-03-25T10:13:43.646Z,7.80
2019-03-25T10:16:14.685Z,7.60
2019-03-25T10:18:45.623Z,7.40
2019-03-25T10:21:16.455Z,7.10
2019-03-25T10:23:48.526Z,7.10
2019-03-25T10:26:19.635Z,7.10
2019-03-25T10:28:50.500Z,7.20
2019-03-25T10:31:21.478Z,9.10
2019-03-25T10:33:53.604Z,12.50
2019-03-25T10:36:24.409Z,13.70
2019-03-25T10:38:55.274Z,12.30
2019-03-25T10:41:26.078Z,10.70
2019-03-25T10:43:57.048Z,9.20
2019-03-25T10:46:27.715Z,7.60
2019-03-25T10:48:58.632Z,6.70
2019-03-25T10:51:29.516Z,6.20
2019-03-25T10:54:01.400Z,6.30
2019-03-25T10:56:32.316Z,6.40
2019-03-25T10:59:03.051Z,7.10
2019-03-25T11:01:35.815Z,7.90
2019-03-25T11:04:10.570Z,9.40
2019-03-25T11:06:41.930Z,10.30
2019-03-25T11:09:13.066Z,11.10
2019-03-25T11:11:44.219Z,11.40
2019-03-25T11:14:16.856Z,11.90
2019-03-25T11:16:47.709Z,11.00
2019-03-25T11:19:19.647Z,10.40
2019-03-25T11:21:51.435Z,12.80
2019-03-25T11:24:23.966Z,14.50
2019-03-25T11:26:55.993Z,15.50
2019-03-25T11:29:27.274Z,15.30
2019-03-25T11:31:58.601Z,12.80
2019-03-25T11:34:30.959Z,10.70
2019-03-25T11:37:02.357Z,9.80
2019-03-25T11:39:33.747Z,12.40
2019-03-25T11:42:05.051Z,15.60
2019-03-25T11:44:37.338Z,17.00
2019-03-25T11:47:08.472Z,17.70
2019-03-25T11:49:39.962Z,17.80
2019-03-25T11:52:13.058Z,15.90
2019-03-25T11:54:45.574Z,14.80
2019-03-25T11:57:17.107Z,12.90
2019-03-25T11:59:48.540Z,11.90
2019-03-25T12:02:19.772Z,11.50
2019-03-25T12:04:51.632Z,11.20
2019-03-25T12:07:22.526Z,10.90
2019-03-25T12:09:53.276Z,10.80
2019-03-25T12:12:25.224Z,10.90
2019-03-25T12:14:56.039Z,11.20
2019-03-25T12:17:26.907Z,10.80
2019-03-25T12:19:57.656Z,10.80
2019-03-25T12:22:28.499Z,10.10
2019-03-25T12:24:59.323Z,9.80
2019-03-25T12:27:30.206Z,9.80
2019-03-25T12:30:01.082Z,9.30
2019-03-25T12:32:31.984Z,9.00
2019-03-25T12:35:05.629Z,8.60
2019-03-25T12:37:36.465Z,9.30
2019-03-25T12:40:07.973Z,11.50
2019-03-25T12:42:39.018Z,11.70
2019-03-25T12:45:11.383Z,13.40
2019-03-25T12:47:42.239Z,13.70
2019-03-25T12:50:13.456Z,13.80
2019-03-25T12:52:44.431Z,13.60
2019-03-25T12:55:16.488Z,14.10
2019-03-25T12:57:47.337Z,13.70
2019-03-25T13:00:22.003Z,13.90
2019-03-25T13:02:53.534Z,13.80
2019-03-25T13:05:26.099Z,13.70
2019-03-25T13:07:57.149Z,11.20
2019-03-25T13:10:28.291Z,8.60
2019-03-25T13:12:59.873Z,7.00
2019-03-25T13:15:30.569Z,7.00
2019-03-25T13:18:02.169Z,6.90
2019-03-25T13:20:33.681Z,7.00
2019-03-25T13:23:05.249Z,8.00
2019-03-25T13:25:39.516Z,7.90
2019-03-25T13:28:10.585Z,8.10
2019-03-25T13:30:41.852Z,8.80
2019-03-25T13:33:13.051Z,8.80
2019-03-25T13:35:45.152Z,9.30
2019-03-25T13:38:16.488Z,9.20
2019-03-25T13:40:47.910Z,9.90
2019-03-25T13:43:19.188Z,12.00
2019-03-25T13:45:50.421Z,13.20
2019-03-25T13:48:22.158Z,14.10
2019-03-25T13:50:53.139Z,13.90
2019-03-25T13:53:24.495Z,13.60
2019-03-25T13:55:56.651Z,14.30
2019-03-25T13:58:27.883Z,13.80
2019-03-25T14:00:59.509Z,13.50
2019-03-25T14:03:30.988Z,12.20
2019-03-25T14:06:03.543Z,10.50
2019-03-25T14:08:35.050Z,9.20
2019-03-25T14:11:06.219Z,9.90
2019-03-25T14:13:44.712Z,10.70
2019-03-25T14:16:11.482Z,11.80
2019-03-25T14:18:42.871Z,12.60
2019-03-25T14:21:14.030Z,12.50
2019-03-25T14:23:45.258Z,14.00
2019-03-25T14:26:17.671Z,14.70
2019-03-25T14:28:49.145Z,14.00
2019-03-25T14:31:20.966Z,14.20
2019-03-25T14:33:52.223Z,13.50
2019-03-25T14:36:23.455Z,14.10
2019-03-25T14:38:54.518Z,13.40
2019-03-25T14:41:25.360Z,13.80
2019-03-25T14:43:57.224Z,14.50
2019-03-25T14:46:28.529Z,13.60
2019-03-25T14:48:59.767Z,13.20
2019-03-25T14:51:31.367Z,13.30
2019-03-25T14:54:03.985Z,12.90
2019-03-25T14:56:35.440Z,13.80
2019-03-25T14:59:06.940Z,13.40
2019-03-25T15:01:38.324Z,13.00
2019-03-25T15:04:10.778Z,11.80
2019-03-25T15:06:41.794Z,11.00
2019-03-25T15:09:13.605Z,11.50
2019-03-25T15:11:45.058Z,12.10
2019-03-25T15:14:17.548Z,12.40
2019-03-25T15:16:49.549Z,11.90
2019-03-25T15:19:20.888Z,11.00
2019-03-25T15:21:52.119Z,11.00
2019-03-25T15:24:24.297Z,11.70
2019-03-25T15:26:55.394Z,11.70
2019-03-25T15:29:26.418Z,11.10
2019-03-25T15:31:58.892Z,11.40
2019-03-25T15:34:31.079Z,10.70
2019-03-25T15:37:02.482Z,11.30
2019-03-25T15:39:33.843Z,11.40
2019-03-25T15:42:05.103Z,11.40
2019-03-25T15:44:39.080Z,11.20
2019-03-25T15:47:10.162Z,11.10
2019-03-25T15:49:41.405Z,10.60
2019-03-25T15:52:12.834Z,10.10
2019-03-25T15:54:45.437Z,10.00
2019-03-25T15:57:16.677Z,9.50
2019-03-25T15:59:47.878Z,9.20
2019-03-25T16:02:19.015Z,9.00
2019-03-25T16:04:50.225Z,8.40
2019-03-25T16:07:21.572Z,8.30
2019-03-25T16:09:53.027Z,8.30
2019-03-25T16:12:23.820Z,8.60
2019-03-25T16:14:56.248Z,8.50
2019-03-25T16:17:27.546Z,8.60
2019-03-25T16:19:59.476Z,8.60
2019-03-25T16:22:30.427Z,8.50
2019-03-25T16:25:02.839Z,8.40
2019-03-25T16:27:34.695Z,8.20
2019-03-25T16:30:08.500Z,8.20
2019-03-25T16:32:39.598Z,8.10
2019-03-25T16:35:12.101Z,8.00
2019-03-25T16:37:43.204Z,7.80
2019-03-25T16:40:14.946Z,7.50
2019-03-25T16:42:46.264Z,7.50
2019-03-25T16:45:19.349Z,7.50
2019-03-25T16:47:50.853Z,7.50
2019-03-25T16:50:23.000Z,7.40
2019-03-25T16:52:54.313Z,7.40
2019-03-25T16:55:27.771Z,7.20
2019-03-25T16:57:59.011Z,7.00
2019-03-25T17:00:30.369Z,6.90
2019-03-25T17:03:02.787Z,6.60
2019-03-25T17:05:35.634Z,6.50
2019-03-25T17:08:06.742Z,6.40
2019-03-25T17:10:39.563Z,6.20
2019-03-25T17:13:10.918Z,6.30
2019-03-25T17:15:44.306Z,6.10
2019-03-25T17:18:16.713Z,6.00
2019-03-25T17:20:49.995Z,6.00
2019-03-25T17:23:21.220Z,6.10
2019-03-25T17:25:54.083Z,6.10
2019-03-25T17:28:29.765Z,6.10
2019-03-25T17:31:03.046Z,5.90
2019-03-25T17:33:35.709Z,5.90
2019-03-25T17:36:07.993Z,5.90
2019-03-25T17:38:40.155Z,5.80
2019-03-25T17:41:15.091Z,5.70
2019-03-25T17:43:46.022Z,5.80
2019-03-25T17:46:20.586Z,5.80
2019-03-25T17:48:52.334Z,5.50
2019-03-25T17:51:27.730Z,5.40
2019-03-25T17:54:01.075Z,5.30
2019-03-25T17:56:40.284Z,5.10
2019-03-25T17:59:17.027Z,5.00
2019-03-25T18:01:48.289Z,5.20
2019-03-25T18:04:19.292Z,5.40
2019-03-25T18:06:52.104Z,5.50
2019-03-25T18:09:27.250Z,5.50
2019-03-25T18:14:34.549Z,5.60
2019-03-25T18:17:13.146Z,5.70
2019-03-25T18:19:50.527Z,5.60
2019-03-25T18:22:21.512Z,5.60
2019-03-25T18:24:54.471Z,5.70
2019-03-25T18:27:27.381Z,5.50
2019-03-25T18:29:58.951Z,5.50
2019-03-25T18:32:31.249Z,5.50
2019-03-25T18:35:03.843Z,5.50
2019-03-25T18:37:36.228Z,5.50
2019-03-25T18:40:11.405Z,5.50
2019-03-25T18:42:47.029Z,5.50
2019-03-25T18:45:21.816Z,5.30
2019-03-25T18:47:58.675Z,5.30
2019-03-25T18:50:33.365Z,5.10
2019-03-25T18:53:06.239Z,5.00
2019-03-25T18:58:20.463Z,4.80
2019-03-25T19:00:54.419Z,4.80
2019-03-25T19:03:34.202Z,4.90
2019-03-25T19:06:06.746Z,5.00
2019-03-25T19:08:42.159Z,4.90
2019-03-25T19:11:18.666Z,4.90
2019-03-25T19:13:51.496Z,4.70
2019-03-25T19:16:27.233Z,4.70
2019-03-25T19:19:04.356Z,4.60
2019-03-25T19:21:42.416Z,4.50
2019-03-25T19:24:16.213Z,4.50
2019-03-25T19:26:51.352Z,4.50
2019-03-25T19:29:26.033Z,4.50
2019-03-25T19:32:06.525Z,4.50
2019-03-25T19:34:50.905Z,4.50
2019-03-25T19:37:28.870Z,4.40
2019-03-25T19:40:13.872Z,4.40
2019-03-25T19:42:50.963Z,4.40
2019-03-25T19:45:26.747Z,4.30
2019-03-25T19:47:58.976Z,4.30
2019-03-25T19:50:35.545Z,4.20
2019-03-25T19:53:18.914Z,4.10
2019-03-25T19:55:53.043Z,4.00
2019-03-25T19:58:29.976Z,4.00
2019-03-25T20:01:03.807Z,3.90
2019-03-25T20:03:37.000Z,3.80
2019-03-25T20:06:12.511Z,3.60
2019-03-25T20:09:06.653Z,3.60
2019-03-25T20:11:39.430Z,3.50
2019-03-25T20:14:14.907Z,3.40
2019-03-25T20:16:49.040Z,3.60
2019-03-25T20:19:27.176Z,3.70
2019-03-25T20:22:01.755Z,3.60
2019-03-25T20:24:37.894Z,3.70
2019-03-25T20:27:12.833Z,3.60
2019-03-25T20:29:52.064Z,3.60
2019-03-25T20:32:32.048Z,3.50
2019-03-25T20:35:25.819Z,3.50
2019-03-25T20:38:09.321Z,3.50
2019-03-25T20:40:41.818Z,3.50
2019-03-25T20:43:13.217Z,3.40
2019-03-25T20:45:47.697Z,3.30
2019-03-25T20:48:20.019Z,3.30
2019-03-25T20:50:52.533Z,3.20
2019-03-25T20:53:26.493Z,3.20
2019-03-25T20:56:01.118Z,3.10
2019-03-25T20:58:35.462Z,3.10
2019-03-25T21:01:21.143Z,3.10
2019-03-25T21:03:57.190Z,3.00
2019-03-25T21:06:31.097Z,3.00
2019-03-25T21:09:03.763Z,3.00
2019-03-25T21:11:38.167Z,3.00
2019-03-25T21:14:10.692Z,3.00
2019-03-25T21:16:45.881Z,3.00
2019-03-25T21:19:18.695Z,3.00
2019-03-25T21:21:50.313Z,2.90
2019-03-25T21:24:27.205Z,2.90
2019-03-25T21:27:02.792Z,2.90
2019-03-25T21:29:37.279Z,2.80
2019-03-25T21:32:11.558Z,2.80
2019-03-25T21:34:42.676Z,2.80
2019-03-25T21:37:17.768Z,2.80
2019-03-25T21:42:29.249Z,2.60
2019-03-25T21:45:07.444Z,2.60
2019-03-25T21:47:43.776Z,2.40
2019-03-25T21:50:19.934Z,2.40
2019-03-25T21:53:01.744Z,2.30
2019-03-25T21:55:31.831Z,2.20
2019-03-25T21:58:05.673Z,2.10
2019-03-25T22:00:36.722Z,2.00
2019-03-25T22:03:14.208Z,2.00
2019-03-25T22:05:52.435Z,2.10
2019-03-25T22:08:25.809Z,2.00
2019-03-25T22:11:03.536Z,2.00
2019-03-25T22:13:37.516Z,2.00
2019-03-25T22:16:11.409Z,2.00
2019-03-25T22:18:42.335Z,1.90
2019-03-25T22:21:14.101Z,1.90
2019-03-25T22:23:45.241Z,1.80
2019-03-25T22:26:18.088Z,1.80
2019-03-25T22:28:51.256Z,1.80
2019-03-25T22:31:22.261Z,1.80
2019-03-25T22:33:53.153Z,1.70
2019-03-25T22:36:24.027Z,1.80
2019-03-25T22:38:54.962Z,1.90
2019-03-25T22:41:25.824Z,1.90
2019-03-25T22:43:56.552Z,1.80
2019-03-25T22:46:27.369Z,1.70
2019-03-25T22:48:59.222Z,1.80
2019-03-25T22:51:31.046Z,1.80
2019-03-25T22:54:01.778Z,1.70
2019-03-25T22:56:32.550Z,1.70
2019-03-25T22:59:03.218Z,1.70
2019-03-25T23:01:34.024Z,1.60
2019-03-25T23:04:04.783Z,1.40
2019-03-25T23:06:35.524Z,1.50
2019-03-25T23:09:08.334Z,1.50
2019-03-25T23:11:39.165Z,1.50
2019-03-25T23:14:10.008Z,1.50
2019-03-25T23:16:41.890Z,1.50
2019-03-25T23:19:12.797Z,1.50
2019-03-25T23:21:43.530Z,1.40
2019-03-25T23:24:14.159Z,1.40
2019-03-25T23:26:46.060Z,1.40
2019-03-25T23:29:16.782Z,1.20
2019-03-25T23:31:47.719Z,1.30
2019-03-25T23:34:18.426Z,1.40
2019-03-25T23:36:50.594Z,1.30
2019-03-25T23:39:21.415Z,1.20
2019-03-25T23:41:52.490Z,1.20
2019-03-25T23:44:23.299Z,1.20
2019-03-25T23:46:54.056Z,1.20
2019-03-25T23:49:24.895Z,1.20
2019-03-25T23:51:55.714Z,1.10
2019-03-25T23:54:26.601Z,1.20
2019-03-25T23:56:57.461Z,1.10
2019-03-25T23:59:28.337Z,1.10
